createdAt,value
2018-12-04T00:00:28.114Z,8.07
2018-12-04T00:02:55.331Z,10.60
2018-12-04T00:05:22.577Z,7.17
2018-12-04T00:07:49.770Z,8.83
2018-12-04T00:10:16.981Z,7.10
2018-12-04T00:12:44.190Z,8.63
2018-12-04T00:15:11.403Z,8.97
2018-12-04T00:17:38.693Z,11.53
2018-12-04T00:20:06.317Z,9.03
2018-12-04T00:22:33.568Z,6.83
2018-12-04T00:25:00.791Z,11.07
2018-12-04T00:27:28.018Z,7.97
2018-12-04T00:29:55.238Z,9.17
2018-12-04T00:32:22.457Z,13.20
2018-12-04T00:34:49.669Z,8.67
2018-12-04T00:37:17.287Z,10.83
2018-12-04T00:39:44.588Z,10.97
2018-12-04T00:42:11.858Z,7.30
2018-12-04T00:44:39.082Z,7.97
2018-12-04T00:47:06.365Z,6.33
2018-12-04T00:49:33.588Z,7.03
2018-12-04T00:52:00.781Z,6.37
2018-12-04T00:54:28.081Z,6.60
2018-12-04T00:56:55.277Z,5.27
2018-12-04T00:59:22.478Z,4.80
2018-12-04T01:01:49.704Z,5.30
2018-12-04T01:04:17.018Z,8.50
2018-12-04T01:06:44.235Z,6.77
2018-12-04T01:09:11.518Z,7.53
2018-12-04T01:11:38.743Z,4.43
2018-12-04T01:14:05.967Z,6.30
2018-12-04T01:16:33.300Z,5.00
2018-12-04T01:19:00.601Z,8.03
2018-12-04T01:21:27.814Z,8.73
2018-12-04T01:23:55.066Z,4.83
2018-12-04T01:26:22.273Z,5.20
2018-12-04T01:28:49.477Z,6.43
2018-12-04T01:31:16.724Z,6.63
2018-12-04T01:33:43.966Z,5.73
2018-12-04T01:36:11.182Z,5.00
2018-12-04T01:38:38.383Z,4.53
2018-12-04T01:41:05.621Z,5.40
2018-12-04T01:43:32.846Z,4.50
2018-12-04T01:46:00.038Z,4.47
2018-12-04T01:48:27.261Z,6.67
2018-12-04T01:50:54.521Z,5.23
2018-12-04T01:53:21.741Z,3.57
2018-12-04T01:55:48.946Z,7.63
2018-12-04T01:58:16.231Z,3.57
2018-12-04T02:00:43.570Z,5.03
2018-12-04T02:03:10.774Z,4.47
2018-12-04T02:05:38.021Z,4.57
2018-12-04T02:08:05.221Z,3.03
2018-12-04T02:10:32.454Z,5.23
2018-12-04T02:12:59.725Z,4.30
2018-12-04T02:15:26.994Z,6.67
2018-12-04T02:17:54.245Z,3.77
2018-12-04T02:20:21.494Z,4.20
2018-12-04T02:22:48.697Z,7.33
2018-12-04T02:25:15.913Z,3.80
2018-12-04T02:27:43.197Z,5.47
2018-12-04T02:30:10.447Z,8.97
2018-12-04T02:32:37.774Z,7.43
2018-12-04T02:35:05.062Z,4.70
2018-12-04T02:37:32.280Z,8.23
2018-12-04T02:39:59.511Z,5.20
2018-12-04T02:42:26.716Z,4.20
2018-12-04T02:44:53.913Z,5.47
2018-12-04T02:47:21.205Z,7.13
2018-12-04T02:49:48.410Z,3.93
2018-12-04T02:52:15.696Z,5.17
2018-12-04T02:54:42.916Z,7.17
2018-12-04T02:57:10.167Z,6.70
2018-12-04T02:59:37.466Z,6.53
2018-12-04T03:02:04.702Z,5.67
2018-12-04T03:04:31.982Z,4.20
2018-12-04T03:06:59.181Z,6.17
2018-12-04T03:09:26.493Z,7.17
2018-12-04T03:11:53.751Z,6.50
2018-12-04T03:14:21.030Z,7.13
2018-12-04T03:16:48.225Z,4.17
2018-12-04T03:19:15.449Z,5.97
2018-12-04T03:21:42.672Z,5.17
2018-12-04T03:24:09.903Z,11.10
2018-12-04T03:26:37.126Z,5.87
2018-12-04T03:29:04.330Z,8.43
2018-12-04T03:31:31.614Z,11.60
2018-12-04T03:33:58.838Z,8.20
2018-12-04T03:36:26.119Z,6.13
2018-12-04T03:38:53.395Z,6.90
2018-12-04T03:41:20.646Z,10.10
2018-12-04T03:43:47.869Z,12.37
2018-12-04T03:46:15.114Z,12.63
2018-12-04T03:48:42.352Z,9.63
2018-12-04T03:51:09.654Z,11.80
2018-12-04T03:53:36.910Z,11.60
2018-12-04T03:56:04.297Z,7.83
2018-12-04T03:58:31.497Z,14.20
2018-12-04T04:00:58.702Z,12.97
2018-12-04T04:03:25.926Z,13.93
2018-12-04T04:05:53.209Z,14.83
2018-12-04T04:08:20.447Z,17.67
2018-12-04T04:10:47.754Z,13.43
2018-12-04T04:13:14.981Z,15.70
2018-12-04T04:15:42.273Z,20.03
2018-12-04T04:18:09.466Z,15.70
2018-12-04T04:20:36.768Z,20.40
2018-12-04T04:23:04.078Z,14.83
2018-12-04T04:25:31.286Z,17.43
2018-12-04T04:27:58.515Z,18.23
2018-12-04T04:30:25.722Z,13.90
2018-12-04T04:32:52.954Z,14.87
2018-12-04T04:35:20.183Z,13.27
2018-12-04T04:37:47.410Z,14.50
2018-12-04T04:40:14.734Z,11.73
2018-12-04T04:42:41.939Z,15.33
2018-12-04T04:45:09.199Z,15.37
2018-12-04T04:47:36.408Z,13.13
2018-12-04T04:50:04.005Z,15.93
2018-12-04T04:52:31.210Z,15.30
2018-12-04T04:54:58.501Z,13.47
2018-12-04T04:57:25.762Z,12.67
2018-12-04T04:59:52.983Z,10.17
2018-12-04T05:02:20.244Z,14.27
2018-12-04T05:04:47.481Z,13.57
2018-12-04T05:07:14.714Z,15.30
2018-12-04T05:09:41.955Z,12.20
2018-12-04T05:12:09.170Z,21.67
2018-12-04T05:14:36.394Z,15.83
2018-12-04T05:17:03.654Z,19.50
2018-12-04T05:19:30.870Z,17.07
2018-12-04T05:21:58.122Z,18.30
2018-12-04T05:24:25.367Z,19.97
2018-12-04T05:26:52.629Z,14.53
2018-12-04T05:29:19.830Z,22.30
2018-12-04T05:31:47.054Z,11.70
2018-12-04T05:34:14.314Z,13.33
2018-12-04T05:36:41.600Z,13.63
2018-12-04T05:39:08.822Z,14.87
2018-12-04T05:41:36.050Z,21.47
2018-12-04T05:44:03.290Z,16.97
2018-12-04T05:46:30.577Z,15.87
2018-12-04T05:48:57.778Z,19.87
2018-12-04T05:51:25.043Z,14.43
2018-12-04T05:53:52.330Z,10.57
2018-12-04T05:56:19.632Z,13.57
2018-12-04T05:58:46.966Z,18.10
2018-12-04T06:01:14.183Z,13.87
2018-12-04T06:03:41.446Z,11.30
2018-12-04T06:06:08.654Z,19.77
2018-12-04T06:08:35.861Z,13.47
2018-12-04T06:11:03.110Z,12.03
2018-12-04T06:13:30.374Z,9.80
2018-12-04T06:15:57.584Z,14.80
2018-12-04T06:18:24.797Z,8.00
2018-12-04T06:20:52.017Z,9.80
2018-12-04T06:23:19.238Z,9.20
2018-12-04T06:25:46.441Z,9.10
2018-12-04T06:28:13.673Z,10.60
2018-12-04T06:30:40.878Z,16.00
2018-12-04T06:33:08.186Z,13.10
2018-12-04T06:35:35.390Z,16.33
2018-12-04T06:38:02.605Z,9.80
2018-12-04T06:40:29.890Z,7.10
2018-12-04T06:42:57.112Z,8.90
2018-12-04T06:45:24.355Z,10.70
2018-12-04T06:47:51.600Z,11.33
2018-12-04T06:50:18.817Z,11.83
2018-12-04T06:52:46.041Z,14.43
2018-12-04T06:55:13.281Z,16.40
2018-12-04T06:57:40.573Z,12.90
2018-12-04T07:00:08.153Z,11.27
2018-12-04T07:02:35.437Z,11.80
2018-12-04T07:05:02.731Z,13.90
2018-12-04T07:07:30.008Z,13.10
2018-12-04T07:09:57.353Z,14.27
2018-12-04T07:12:24.555Z,19.13
2018-12-04T07:14:51.750Z,14.00
2018-12-04T07:17:18.971Z,12.47
2018-12-04T07:19:46.202Z,12.13
2018-12-04T07:22:13.404Z,13.73
2018-12-04T07:24:40.602Z,11.93
2018-12-04T07:27:07.817Z,9.57
2018-12-04T07:29:35.115Z,14.93
2018-12-04T07:32:02.329Z,11.97
2018-12-04T07:34:29.552Z,7.93
2018-12-04T07:36:56.766Z,15.83
2018-12-04T07:39:23.991Z,7.80
2018-12-04T07:41:51.228Z,8.77
2018-12-04T07:44:18.435Z,4.07
2018-12-04T07:46:45.725Z,5.83
2018-12-04T07:49:12.957Z,8.73
2018-12-04T07:51:40.283Z,8.37
2018-12-04T07:54:07.499Z,8.60
2018-12-04T07:56:34.803Z,5.17
2018-12-04T07:59:02.049Z,6.80
2018-12-04T08:01:29.334Z,4.90
2018-12-04T08:03:56.591Z,7.37
2018-12-04T08:06:23.894Z,6.80
2018-12-04T08:08:51.137Z,7.17
2018-12-04T08:11:18.406Z,7.40
2018-12-04T08:13:45.637Z,7.60
2018-12-04T08:16:12.922Z,7.13
2018-12-04T08:18:40.136Z,5.63
2018-12-04T08:21:07.399Z,12.07
2018-12-04T08:23:34.653Z,16.33
2018-12-04T08:26:01.861Z,7.50
2018-12-04T08:28:29.077Z,4.37
2018-12-04T08:30:56.277Z,9.60
2018-12-04T08:33:23.494Z,8.00
2018-12-04T08:35:50.704Z,11.27
2018-12-04T08:38:17.956Z,8.90
2018-12-04T08:40:45.173Z,5.50
2018-12-04T08:43:12.494Z,6.93
2018-12-04T08:45:39.722Z,10.13
2018-12-04T08:48:07.251Z,11.70
2018-12-04T08:50:34.478Z,8.20
2018-12-04T08:53:01.695Z,8.27
2018-12-04T08:55:28.902Z,11.07
2018-12-04T08:57:56.125Z,8.80
2018-12-04T09:00:23.470Z,11.00
2018-12-04T09:02:50.749Z,14.50
2018-12-04T09:05:18.083Z,12.57
2018-12-04T09:07:45.301Z,20.87
2018-12-04T09:10:12.625Z,18.67
2018-12-04T09:12:39.833Z,16.13
2018-12-04T09:15:07.166Z,13.83
2018-12-04T09:17:34.412Z,17.10
2018-12-04T09:20:01.645Z,14.03
2018-12-04T09:22:28.930Z,12.43
2018-12-04T09:24:56.231Z,13.10
2018-12-04T09:27:23.582Z,11.40
2018-12-04T09:29:50.858Z,15.10
2018-12-04T09:32:18.169Z,12.40
2018-12-04T09:34:45.374Z,8.37
2018-12-04T09:37:12.652Z,11.90
2018-12-04T09:39:39.941Z,17.73
2018-12-04T09:42:07.467Z,15.27
2018-12-04T09:44:34.665Z,11.70
2018-12-04T09:47:01.866Z,7.53
2018-12-04T09:49:29.139Z,10.70
2018-12-04T09:51:56.344Z,8.73
2018-12-04T09:54:23.541Z,8.07
2018-12-04T09:56:50.762Z,10.67
2018-12-04T09:59:18.030Z,10.00
2018-12-04T10:01:45.667Z,9.97
2018-12-04T10:04:12.903Z,7.57
2018-12-04T10:06:40.101Z,7.90
2018-12-04T10:09:07.802Z,8.00
2018-12-04T10:11:35.022Z,9.17
2018-12-04T10:14:02.381Z,8.53
2018-12-04T10:16:29.894Z,8.27
2018-12-04T10:18:57.099Z,7.00
2018-12-04T10:21:24.360Z,6.40
2018-12-04T10:23:51.578Z,11.30
2018-12-04T10:26:18.830Z,8.10
2018-12-04T10:28:46.026Z,7.60
2018-12-04T10:31:13.237Z,12.07
2018-12-04T10:33:40.613Z,11.43
2018-12-04T10:36:08.974Z,10.87
2018-12-04T10:38:36.450Z,8.90
2018-12-04T10:41:03.761Z,12.23
2018-12-04T10:43:30.994Z,8.53
2018-12-04T10:45:58.279Z,7.20
2018-12-04T10:48:25.478Z,12.73
2018-12-04T10:50:52.706Z,10.63
2018-12-04T10:53:19.954Z,9.87
2018-12-04T10:55:47.178Z,13.43
2018-12-04T10:58:14.397Z,10.43
2018-12-04T11:00:47.353Z,17.87
2018-12-04T11:03:14.653Z,10.90
2018-12-04T11:05:41.934Z,8.10
2018-12-04T11:08:09.185Z,10.70
2018-12-04T11:10:36.419Z,9.20
2018-12-04T11:13:03.694Z,11.53
2018-12-04T11:15:31.031Z,8.43
2018-12-04T11:17:58.270Z,10.33
2018-12-04T11:20:25.509Z,9.87
2018-12-04T11:22:52.757Z,13.37
2018-12-04T11:25:19.960Z,8.90
2018-12-04T11:27:47.270Z,9.43
2018-12-04T11:30:14.465Z,8.50
2018-12-04T11:32:41.669Z,9.33
2018-12-04T11:35:09.006Z,13.47
2018-12-04T11:37:36.274Z,10.83
2018-12-04T11:40:04.651Z,9.33
2018-12-04T11:42:31.862Z,7.03
2018-12-04T11:44:59.067Z,8.13
2018-12-04T11:47:26.314Z,6.67
2018-12-04T11:49:53.538Z,8.23
2018-12-04T11:52:20.738Z,8.70
2018-12-04T11:54:47.978Z,9.83
2018-12-04T11:57:15.186Z,8.93
2018-12-04T11:59:42.452Z,10.33
2018-12-04T12:02:10.912Z,11.50
2018-12-04T12:04:38.791Z,12.53
2018-12-04T12:07:05.991Z,10.67
2018-12-04T12:09:33.233Z,11.80
2018-12-04T12:12:00.487Z,9.33
2018-12-04T12:14:27.687Z,6.63
2018-12-04T12:16:54.903Z,5.50
2018-12-04T12:19:22.117Z,12.30
2018-12-04T12:21:49.345Z,6.00
2018-12-04T12:24:16.537Z,11.57
2018-12-04T12:26:43.765Z,7.67
2018-12-04T12:29:11.009Z,10.90
2018-12-04T12:31:38.229Z,9.13
2018-12-04T12:34:05.478Z,9.20
2018-12-04T12:36:32.774Z,12.97
2018-12-04T12:38:59.997Z,14.50
2018-12-04T12:41:27.233Z,10.20
2018-12-04T12:43:54.537Z,6.57
2018-12-04T12:46:21.747Z,9.37
2018-12-04T12:48:48.965Z,15.33
2018-12-04T12:51:16.238Z,12.47
2018-12-04T12:53:43.549Z,14.70
2018-12-04T12:56:10.810Z,11.10
2018-12-04T12:58:38.123Z,11.63
2018-12-04T13:01:05.439Z,14.83
2018-12-04T13:03:32.661Z,15.17
2018-12-04T13:05:59.902Z,13.00
2018-12-04T13:08:27.137Z,10.33
2018-12-04T13:10:54.349Z,14.57
2018-12-04T13:13:21.559Z,11.37
2018-12-04T13:15:48.864Z,12.13
2018-12-04T13:18:16.152Z,10.93
2018-12-04T13:20:43.427Z,11.40
2018-12-04T13:23:10.656Z,11.03
2018-12-04T13:25:37.931Z,8.87
2018-12-04T13:28:05.226Z,13.13
2018-12-04T13:30:32.562Z,8.47
2018-12-04T13:32:59.896Z,11.53
2018-12-04T13:35:27.232Z,7.83
2018-12-04T13:37:54.456Z,10.43
2018-12-04T13:40:21.750Z,7.80
2018-12-04T13:42:48.999Z,12.43
2018-12-04T13:45:16.232Z,11.43
2018-12-04T13:47:43.579Z,10.30
2018-12-04T13:50:10.918Z,14.87
2018-12-04T13:52:38.233Z,6.77
2018-12-04T13:55:05.666Z,6.23
2018-12-04T13:57:32.941Z,10.70
2018-12-04T14:00:00.223Z,17.70
2018-12-04T14:02:27.509Z,9.27
2018-12-04T14:04:54.795Z,11.87
2018-12-04T14:07:22.138Z,8.47
2018-12-04T14:09:49.440Z,11.90
2018-12-04T14:12:16.734Z,7.37
2018-12-04T14:14:43.977Z,6.33
2018-12-04T14:17:11.326Z,9.07
2018-12-04T14:19:38.548Z,7.27
2018-12-04T14:22:05.861Z,8.53
2018-12-04T14:24:33.124Z,5.80
2018-12-04T14:27:00.429Z,9.43
2018-12-04T14:29:27.694Z,12.50
2018-12-04T14:31:55.022Z,8.00
2018-12-04T14:34:22.285Z,13.70
2018-12-04T14:36:49.560Z,8.73
2018-12-04T14:39:16.916Z,12.83
2018-12-04T14:41:44.175Z,8.97
2018-12-04T14:44:11.399Z,9.27
2018-12-04T14:46:38.715Z,10.27
2018-12-04T14:49:06.027Z,7.93
2018-12-04T14:51:33.266Z,7.07
2018-12-04T14:54:00.625Z,7.17
2018-12-04T14:56:27.929Z,7.60
2018-12-04T14:58:55.245Z,15.37
2018-12-04T15:01:22.578Z,18.30
2018-12-04T15:03:50.148Z,16.13
2018-12-04T15:06:17.437Z,9.97
2018-12-04T15:08:44.651Z,10.47
2018-12-04T15:11:11.971Z,10.33
2018-12-04T15:13:39.257Z,9.73
2018-12-04T15:16:06.655Z,9.50
2018-12-04T15:18:33.971Z,11.87
2018-12-04T15:21:01.250Z,7.40
2018-12-04T15:23:28.553Z,20.43
2018-12-04T15:25:55.892Z,12.40
2018-12-04T15:28:23.131Z,7.47
2018-12-04T15:30:50.428Z,10.97
2018-12-04T15:33:17.747Z,16.13
2018-12-04T15:35:44.949Z,12.40
2018-12-04T15:38:12.242Z,17.07
2018-12-04T15:40:39.485Z,13.30
2018-12-04T15:43:06.757Z,6.83
2018-12-04T15:45:33.962Z,10.40
2018-12-04T15:48:01.190Z,15.10
2018-12-04T15:50:28.497Z,18.53
2018-12-04T15:52:55.726Z,10.23
2018-12-04T15:55:23.039Z,12.10
2018-12-04T15:57:50.345Z,9.90
2018-12-04T16:00:17.545Z,14.00
2018-12-04T16:02:44.779Z,11.47
2018-12-04T16:05:12.026Z,12.30
2018-12-04T16:07:39.249Z,13.70
2018-12-04T16:10:08.906Z,14.67
2018-12-04T16:12:36.120Z,18.60
2018-12-04T16:15:03.437Z,15.20
2018-12-04T16:17:30.645Z,17.53
2018-12-04T16:19:57.849Z,27.27
2018-12-04T16:22:25.155Z,20.00
2018-12-04T16:24:52.438Z,11.67
2018-12-04T16:27:19.663Z,17.93
2018-12-04T16:29:46.956Z,21.13
2018-12-04T16:32:14.181Z,14.10
2018-12-04T16:34:41.385Z,36.23
2018-12-04T16:37:08.605Z,50.00
2018-12-04T16:39:35.851Z,19.97
2018-12-04T16:42:03.077Z,20.23
2018-12-04T16:44:30.357Z,18.13
2018-12-04T16:46:57.566Z,11.77
2018-12-04T16:49:24.877Z,16.87
2018-12-04T16:51:52.098Z,9.73
2018-12-04T16:54:19.299Z,9.37
2018-12-04T16:56:46.522Z,13.27
2018-12-04T16:59:13.754Z,13.37
2018-12-04T17:01:40.994Z,11.70
2018-12-04T17:04:08.237Z,11.63
2018-12-04T17:06:35.453Z,14.80
2018-12-04T17:09:02.681Z,11.90
2018-12-04T17:11:29.917Z,18.20
2018-12-04T17:13:57.114Z,17.13
2018-12-04T17:16:24.318Z,16.00
2018-12-04T17:18:51.677Z,19.40
2018-12-04T17:21:18.986Z,20.90
2018-12-04T17:23:46.197Z,10.83
2018-12-04T17:26:13.552Z,18.67
2018-12-04T17:28:40.792Z,21.47
2018-12-04T17:31:08.085Z,17.83
2018-12-04T17:33:35.338Z,15.67
2018-12-04T17:36:02.680Z,15.50
2018-12-04T17:38:29.954Z,21.27
2018-12-04T17:40:57.174Z,15.47
2018-12-04T17:43:24.418Z,18.23
2018-12-04T17:45:51.674Z,18.43
2018-12-04T17:48:19.037Z,19.67
2018-12-04T17:50:46.348Z,22.43
2018-12-04T17:53:13.550Z,27.43
2018-12-04T17:55:40.776Z,22.87
2018-12-04T17:58:08.034Z,20.10
2018-12-04T18:00:35.290Z,20.77
2018-12-04T18:03:02.501Z,25.10
2018-12-04T18:05:29.734Z,23.97
2018-12-04T18:07:56.946Z,19.13
2018-12-04T18:10:24.165Z,17.37
2018-12-04T18:12:51.374Z,21.40
2018-12-04T18:15:18.598Z,22.07
2018-12-04T18:17:45.834Z,27.97
2018-12-04T18:20:13.057Z,22.03
2018-12-04T18:22:40.390Z,18.73
2018-12-04T18:25:07.692Z,22.43
2018-12-04T18:27:34.934Z,18.40
2018-12-04T18:30:02.174Z,16.40
2018-12-04T18:32:29.381Z,20.27
2018-12-04T18:34:56.650Z,20.93
2018-12-04T18:37:23.853Z,18.60
2018-12-04T18:39:51.194Z,20.67
2018-12-04T18:42:18.474Z,38.50
2018-12-04T18:44:45.713Z,32.00
2018-12-04T18:47:12.934Z,27.40
2018-12-04T18:49:40.217Z,25.03
2018-12-04T18:52:07.465Z,27.20
2018-12-04T18:54:34.674Z,25.17
2018-12-04T18:57:01.894Z,33.90
2018-12-04T18:59:29.107Z,30.07
2018-12-04T19:01:56.478Z,24.30
2018-12-04T19:04:23.705Z,25.13
2018-12-04T19:06:50.977Z,21.23
2018-12-04T19:09:18.214Z,21.87
2018-12-04T19:11:45.425Z,23.43
2018-12-04T19:14:12.686Z,20.80
2018-12-04T19:16:40.003Z,16.63
2018-12-04T19:19:07.267Z,22.10
2018-12-04T19:24:37.253Z,25.73
2018-12-04T19:27:04.631Z,27.73
2018-12-04T19:29:31.958Z,26.27
2018-12-04T19:31:59.178Z,21.73
2018-12-04T19:34:26.408Z,20.30
2018-12-04T19:36:53.663Z,19.87
2018-12-04T19:39:22.166Z,24.30
2018-12-04T19:41:49.373Z,20.47
2018-12-04T19:44:16.589Z,22.37
2018-12-04T19:46:43.821Z,18.23
2018-12-04T19:49:11.058Z,18.13
2018-12-04T19:51:38.293Z,26.13
2018-12-04T19:54:05.566Z,18.73
2018-12-04T19:56:32.798Z,24.03
2018-12-04T19:59:00.054Z,26.97
2018-12-04T20:01:27.278Z,25.87
2018-12-04T20:03:54.558Z,18.40
2018-12-04T20:06:21.766Z,21.13
2018-12-04T20:08:52.125Z,24.13
2018-12-04T20:11:19.622Z,25.00
2018-12-04T20:13:46.894Z,20.23
2018-12-04T20:16:14.122Z,18.07
2018-12-04T20:18:41.330Z,16.33
2018-12-04T20:21:08.566Z,20.23
2018-12-04T20:23:35.819Z,19.23
2018-12-04T20:26:03.436Z,16.90
2018-12-04T20:28:30.650Z,20.20
2018-12-04T20:30:57.887Z,24.07
2018-12-04T20:33:25.174Z,21.83
2018-12-04T20:35:53.267Z,21.40
2018-12-04T20:38:20.518Z,17.53
2018-12-04T20:40:47.758Z,21.57
2018-12-04T20:43:14.994Z,27.27
2018-12-04T20:45:42.414Z,28.90
2018-12-04T20:48:09.669Z,23.70
2018-12-04T20:50:36.902Z,15.07
2018-12-04T20:53:04.381Z,24.33
2018-12-04T20:55:31.611Z,18.73
2018-12-04T20:57:58.874Z,16.77
2018-12-04T21:00:26.113Z,20.07
2018-12-04T21:02:53.354Z,26.40
2018-12-04T21:05:20.570Z,21.97
2018-12-04T21:07:48.034Z,28.13
2018-12-04T21:10:15.238Z,19.67
2018-12-04T21:12:42.466Z,19.07
2018-12-04T21:15:09.705Z,21.17
2018-12-04T21:17:37.017Z,23.20
2018-12-04T21:20:04.809Z,22.13
2018-12-04T21:22:32.058Z,20.07
2018-12-04T21:24:59.265Z,17.40
2018-12-04T21:27:32.449Z,24.73
2018-12-04T21:30:05.374Z,30.57
2018-12-04T21:32:38.274Z,16.30
2018-12-04T21:35:11.141Z,20.23
2018-12-04T21:37:44.158Z,22.60
2018-12-04T21:40:17.145Z,23.47
2018-12-04T21:42:50.214Z,19.17
2018-12-04T21:45:23.070Z,18.80
2018-12-04T21:47:55.190Z,22.03
2018-12-04T21:50:22.477Z,19.63
2018-12-04T21:52:49.710Z,24.63
2018-12-04T21:55:16.974Z,33.30
2018-12-04T21:57:44.251Z,34.33
2018-12-04T22:00:11.591Z,21.83
2018-12-04T22:02:38.891Z,22.33
2018-12-04T22:05:06.165Z,21.83
2018-12-04T22:07:33.438Z,20.93
2018-12-04T22:10:00.681Z,18.10
2018-12-04T22:12:27.942Z,17.77
2018-12-04T22:14:55.173Z,18.70
2018-12-04T22:17:22.422Z,21.57
2018-12-04T22:19:49.666Z,20.17
2018-12-04T22:22:16.985Z,15.30
2018-12-04T22:24:44.211Z,18.37
2018-12-04T22:27:11.481Z,16.80
2018-12-04T22:29:38.724Z,23.27
2018-12-04T22:32:05.945Z,16.50
2018-12-04T22:34:33.184Z,19.00
2018-12-04T22:37:00.406Z,18.20
2018-12-04T22:39:27.641Z,16.80
2018-12-04T22:41:54.953Z,19.30
2018-12-04T22:44:22.174Z,19.87
2018-12-04T22:46:49.576Z,22.93
2018-12-04T22:49:16.905Z,21.73
2018-12-04T22:51:44.199Z,28.53
2018-12-04T22:54:11.450Z,33.17
2018-12-04T22:56:38.690Z,30.70
2018-12-04T22:59:05.932Z,41.17
2018-12-04T23:01:37.899Z,59.30
2018-12-04T23:04:06.474Z,38.33
2018-12-04T23:06:33.722Z,35.17
2018-12-04T23:09:00.990Z,37.60
2018-12-04T23:11:28.267Z,37.23
2018-12-04T23:13:55.521Z,25.70
2018-12-04T23:16:22.854Z,30.23
2018-12-04T23:18:50.095Z,32.57
2018-12-04T23:21:17.364Z,28.53
2018-12-04T23:23:44.671Z,32.07
2018-12-04T23:26:11.913Z,34.33
2018-12-04T23:28:39.192Z,34.90
2018-12-04T23:31:06.458Z,36.47
2018-12-04T23:33:33.718Z,35.87
2018-12-04T23:36:00.948Z,37.27
2018-12-04T23:38:28.213Z,39.53
2018-12-04T23:40:55.441Z,36.33
2018-12-04T23:43:22.665Z,40.73
2018-12-04T23:45:49.926Z,40.27
2018-12-04T23:48:17.178Z,38.70
2018-12-04T23:50:44.425Z,33.83
2018-12-04T23:53:11.678Z,33.27
2018-12-04T23:55:38.917Z,40.77
2018-12-04T23:58:06.239Z,29.40
